createdAt,value
2018-02-02T00:02:02.404Z,72.60
2018-02-02T00:04:29.556Z,72.70
2018-02-02T00:06:56.566Z,72.70
2018-02-02T00:09:22.782Z,72.70
2018-02-02T00:11:49.244Z,72.70
2018-02-02T00:14:15.577Z,73.10
2018-02-02T00:16:41.857Z,73.00
2018-02-02T00:19:08.150Z,73.10
2018-02-02T00:21:34.544Z,73.10
2018-02-02T00:24:00.760Z,73.10
2018-02-02T00:26:27.053Z,73.30
2018-02-02T00:28:53.413Z,73.00
2018-02-02T00:31:20.411Z,73.10
2018-02-02T00:33:46.685Z,73.10
2018-02-02T00:36:13.031Z,73.20
2018-02-02T00:38:40.065Z,73.00
2018-02-02T00:41:06.378Z,73.10
2018-02-02T00:43:32.692Z,72.80
2018-02-02T00:45:59.832Z,72.90
2018-02-02T00:48:26.177Z,72.90
2018-02-02T00:50:58.597Z,73.00
2018-02-02T00:53:25.070Z,73.30
2018-02-02T00:55:51.444Z,73.20
2018-02-02T00:58:17.725Z,73.10
2018-02-02T01:00:44.906Z,72.70
2018-02-02T01:03:11.215Z,72.80
2018-02-02T01:05:38.221Z,73.50
2018-02-02T01:08:04.569Z,73.10
2018-02-02T01:10:30.877Z,73.10
2018-02-02T01:12:57.881Z,73.00
2018-02-02T01:15:24.097Z,73.00
2018-02-02T01:17:50.638Z,73.20
2018-02-02T01:20:16.961Z,73.20
2018-02-02T01:22:44.075Z,73.70
2018-02-02T01:25:10.579Z,73.00
2018-02-02T01:27:36.942Z,73.00
2018-02-02T01:30:03.353Z,73.30
2018-02-02T01:32:29.829Z,72.90
2018-02-02T01:34:56.228Z,72.70
2018-02-02T01:37:22.520Z,72.70
2018-02-02T01:39:50.001Z,72.80
2018-02-02T01:42:16.280Z,72.80
2018-02-02T01:44:42.877Z,72.60
2018-02-02T01:47:09.250Z,72.50
2018-02-02T01:49:35.509Z,72.60
2018-02-02T01:52:02.014Z,72.70
2018-02-02T01:54:28.329Z,72.50
2018-02-02T01:56:55.367Z,72.40
2018-02-02T01:59:21.892Z,72.40
2018-02-02T02:01:48.168Z,72.40
2018-02-02T02:04:14.479Z,72.40
2018-02-02T02:06:40.792Z,72.10
2018-02-02T02:09:07.281Z,72.00
2018-02-02T02:11:33.566Z,72.10
2018-02-02T02:14:00.756Z,72.00
2018-02-02T02:16:27.193Z,72.00
2018-02-02T02:18:53.421Z,72.10
2018-02-02T02:21:19.697Z,72.00
2018-02-02T02:23:46.097Z,71.90
2018-02-02T02:26:12.875Z,71.90
2018-02-02T02:28:39.669Z,71.90
2018-02-02T02:31:06.102Z,71.90
2018-02-02T02:33:32.502Z,71.70
2018-02-02T02:35:58.832Z,72.00
2018-02-02T02:38:25.797Z,71.80
2018-02-02T02:40:52.777Z,71.70
2018-02-02T02:43:20.528Z,71.80
2018-02-02T02:45:47.564Z,71.80
2018-02-02T02:48:13.814Z,71.60
2018-02-02T02:50:41.455Z,71.70
2018-02-02T02:53:07.822Z,71.00
2018-02-02T02:55:34.227Z,71.10
2018-02-02T02:58:00.536Z,71.00
2018-02-02T03:00:26.798Z,71.20
2018-02-02T03:02:53.184Z,71.00
2018-02-02T03:05:19.755Z,71.00
2018-02-02T03:07:46.173Z,71.10
2018-02-02T03:10:13.166Z,71.00
2018-02-02T03:12:39.548Z,70.70
2018-02-02T03:15:05.772Z,71.70
2018-02-02T03:17:32.779Z,70.00
2018-02-02T03:19:59.412Z,70.00
2018-02-02T03:22:25.674Z,69.80
2018-02-02T03:24:51.997Z,70.30
2018-02-02T03:27:18.532Z,69.20
2018-02-02T03:29:45.306Z,69.20
2018-02-02T03:32:11.595Z,69.20
2018-02-02T03:34:37.833Z,69.00
2018-02-02T03:37:08.067Z,68.90
2018-02-02T03:39:36.003Z,68.90
2018-02-02T03:42:06.479Z,68.80
2018-02-02T03:44:32.731Z,68.80
2018-02-02T03:46:59.283Z,69.10
2018-02-02T03:49:25.511Z,69.30
2018-02-02T03:51:51.914Z,69.50
2018-02-02T03:54:18.280Z,69.80
2018-02-02T03:56:44.532Z,69.90
2018-02-02T03:59:10.904Z,70.10
2018-02-02T04:01:37.544Z,70.20
2018-02-02T04:04:03.830Z,70.10
2018-02-02T04:06:30.382Z,70.10
2018-02-02T04:08:56.853Z,70.00
2018-02-02T04:11:23.102Z,69.80
2018-02-02T04:13:49.364Z,69.70
2018-02-02T04:16:15.825Z,69.70
2018-02-02T04:18:42.167Z,69.70
2018-02-02T04:21:28.256Z,69.40
2018-02-02T04:23:55.249Z,69.30
2018-02-02T04:26:21.581Z,69.10
2018-02-02T04:28:48.768Z,68.90
2018-02-02T04:31:15.760Z,68.90
2018-02-02T04:33:42.980Z,69.10
2018-02-02T04:36:11.130Z,69.20
2018-02-02T04:38:39.309Z,68.90
2018-02-02T04:41:05.921Z,68.90
2018-02-02T04:43:32.272Z,69.50
2018-02-02T04:45:58.670Z,68.80
2018-02-02T04:48:25.084Z,69.00
2018-02-02T04:50:52.377Z,69.30
2018-02-02T04:53:18.600Z,69.10
2018-02-02T04:55:45.056Z,69.10
2018-02-02T04:58:16.309Z,68.80
2018-02-02T05:00:43.484Z,69.80
2018-02-02T05:03:09.852Z,68.90
2018-02-02T05:05:36.909Z,69.40
2018-02-02T05:08:03.191Z,69.40
2018-02-02T05:10:29.692Z,69.10
2018-02-02T05:12:58.415Z,69.00
2018-02-02T05:15:35.992Z,68.90
2018-02-02T05:18:02.471Z,68.90
2018-02-02T05:20:28.712Z,69.20
2018-02-02T05:22:55.257Z,68.80
2018-02-02T05:25:21.644Z,69.00
2018-02-02T05:27:47.863Z,68.70
2018-02-02T05:30:14.138Z,68.80
2018-02-02T05:32:41.634Z,68.90
2018-02-02T05:35:08.048Z,68.60
2018-02-02T05:37:34.467Z,68.90
2018-02-02T05:40:00.741Z,68.90
2018-02-02T05:42:40.668Z,68.60
2018-02-02T05:45:07.029Z,68.50
2018-02-02T05:50:17.112Z,68.30
2018-02-02T05:52:45.625Z,68.40
2018-02-02T05:55:16.073Z,67.40
2018-02-02T06:00:19.948Z,67.00
2018-02-02T06:02:46.297Z,67.00
2018-02-02T06:05:12.769Z,67.10
2018-02-02T06:07:39.098Z,66.80
2018-02-02T06:12:37.777Z,66.80
2018-02-02T06:15:03.993Z,66.80
2018-02-02T06:17:30.220Z,66.60
2018-02-02T06:19:56.609Z,66.40
2018-02-02T06:22:22.899Z,65.90
2018-02-02T06:24:49.126Z,66.40
2018-02-02T06:27:15.661Z,66.40
2018-02-02T06:29:42.613Z,65.80
2018-02-02T06:32:09.017Z,65.80
2018-02-02T06:34:35.196Z,65.50
2018-02-02T06:37:02.572Z,66.00
2018-02-02T06:39:29.523Z,66.00
2018-02-02T06:41:56.562Z,66.40
2018-02-02T06:44:22.751Z,65.60
2018-02-02T06:46:49.249Z,65.70
2018-02-02T06:49:15.440Z,65.50
2018-02-02T06:51:41.652Z,65.60
2018-02-02T06:54:08.992Z,65.30
2018-02-02T06:56:35.269Z,65.80
2018-02-02T06:59:01.576Z,65.70
2018-02-02T07:01:27.959Z,65.10
2018-02-02T07:03:55.093Z,65.90
2018-02-02T07:06:21.346Z,65.90
2018-02-02T07:08:47.560Z,64.70
2018-02-02T07:11:15.560Z,65.00
2018-02-02T07:13:43.588Z,64.80
2018-02-02T07:16:09.784Z,64.50
2018-02-02T07:18:37.739Z,65.00
2018-02-02T07:21:04.001Z,65.20
2018-02-02T07:23:30.347Z,64.60
2018-02-02T07:25:56.601Z,65.20
2018-02-02T07:28:22.771Z,65.40
2018-02-02T07:30:49.925Z,66.30
2018-02-02T07:33:16.996Z,66.50
2018-02-02T07:35:43.237Z,66.40
2018-02-02T07:38:09.418Z,67.00
2018-02-02T07:40:35.764Z,67.00
2018-02-02T07:43:01.948Z,67.00
2018-02-02T07:45:28.103Z,67.60
2018-02-02T07:47:54.456Z,67.90
2018-02-02T07:50:20.633Z,67.00
2018-02-02T07:52:46.824Z,67.70
2018-02-02T07:55:13.493Z,67.50
2018-02-02T07:57:39.976Z,67.70
2018-02-02T08:00:06.343Z,67.60
2018-02-02T08:02:33.341Z,67.80
2018-02-02T08:04:59.628Z,67.80
2018-02-02T08:07:25.804Z,67.80
2018-02-02T08:09:52.736Z,68.10
2018-02-02T08:12:19.108Z,68.00
2018-02-02T08:14:45.301Z,67.90
2018-02-02T08:17:11.500Z,68.50
2018-02-02T08:19:37.763Z,68.20
2018-02-02T08:22:04.704Z,68.10
2018-02-02T08:24:30.873Z,68.00
2018-02-02T08:26:57.705Z,69.00
2018-02-02T08:29:23.929Z,67.50
2018-02-02T08:31:50.148Z,68.20
2018-02-02T08:34:17.048Z,69.80
2018-02-02T08:36:43.330Z,69.10
2018-02-02T08:39:09.515Z,69.90
2018-02-02T08:41:35.864Z,69.60
2018-02-02T08:44:02.131Z,69.60
2018-02-02T08:46:28.358Z,68.90
2018-02-02T08:48:54.516Z,69.70
2018-02-02T08:51:20.764Z,69.80
2018-02-02T08:53:46.937Z,69.00
2018-02-02T08:56:13.133Z,69.80
2018-02-02T08:58:39.497Z,68.80
2018-02-02T09:01:11.772Z,68.60
2018-02-02T09:03:38.003Z,68.80
2018-02-02T09:06:04.201Z,68.80
2018-02-02T09:08:30.492Z,67.50
2018-02-02T09:10:57.504Z,67.80
2018-02-02T09:13:23.843Z,67.50
2018-02-02T09:15:50.136Z,67.90
2018-02-02T09:18:16.336Z,67.60
2018-02-02T09:20:43.443Z,67.70
2018-02-02T09:23:09.656Z,67.70
2018-02-02T09:25:35.808Z,67.00
2018-02-02T09:28:02.042Z,67.20
2018-02-02T09:30:28.246Z,65.90
2018-02-02T09:32:55.192Z,66.50
2018-02-02T09:35:22.128Z,66.40
2018-02-02T09:37:48.646Z,66.40
2018-02-02T09:40:14.871Z,64.50
2018-02-02T09:42:42.123Z,64.10
2018-02-02T09:45:08.313Z,65.20
2018-02-02T09:47:34.604Z,65.30
2018-02-02T09:50:03.292Z,64.50
2018-02-02T09:52:29.759Z,63.70
2018-02-02T09:54:55.967Z,64.30
2018-02-02T09:57:22.296Z,64.40
2018-02-02T09:59:48.550Z,63.70
2018-02-02T10:02:14.744Z,63.50
2018-02-02T10:04:41.018Z,64.60
2018-02-02T10:07:07.238Z,64.80
2018-02-02T10:09:33.444Z,65.20
2018-02-02T10:11:59.825Z,64.60
2018-02-02T10:14:26.540Z,65.00
2018-02-02T10:16:52.789Z,65.20
2018-02-02T10:19:19.041Z,63.50
2018-02-02T10:21:45.376Z,64.40
2018-02-02T10:24:11.816Z,64.40
2018-02-02T10:26:38.169Z,64.20
2018-02-02T10:29:04.385Z,65.00
2018-02-02T10:31:30.588Z,64.20
2018-02-02T10:33:56.952Z,64.50
2018-02-02T10:36:23.892Z,64.90
2018-02-02T10:38:50.168Z,64.80
2018-02-02T10:41:16.344Z,64.50
2018-02-02T10:43:42.557Z,64.50
2018-02-02T10:46:08.883Z,64.60
2018-02-02T10:48:35.852Z,64.70
2018-02-02T10:51:02.350Z,64.70
2018-02-02T10:53:28.597Z,65.00
2018-02-02T10:55:54.818Z,64.30
2018-02-02T10:58:21.231Z,63.50
2018-02-02T11:00:54.209Z,63.50
2018-02-02T11:03:24.473Z,63.40
2018-02-02T11:05:50.675Z,62.70
2018-02-02T11:08:16.878Z,61.50
2018-02-02T11:10:43.548Z,62.50
2018-02-02T11:13:09.956Z,62.30
2018-02-02T11:15:36.149Z,61.90
2018-02-02T11:18:02.476Z,62.40
2018-02-02T11:20:28.661Z,62.40
2018-02-02T11:22:54.860Z,61.70
2018-02-02T11:25:21.080Z,62.50
2018-02-02T11:27:47.294Z,62.10
2018-02-02T11:30:13.501Z,61.90
2018-02-02T11:32:39.749Z,62.40
2018-02-02T11:35:06.030Z,62.30
2018-02-02T11:37:32.224Z,61.60
2018-02-02T11:39:58.503Z,62.00
2018-02-02T11:42:24.704Z,61.80
2018-02-02T11:44:50.896Z,61.40
2018-02-02T11:47:17.225Z,60.40
2018-02-02T11:49:43.435Z,60.30
2018-02-02T11:52:09.633Z,60.40
2018-02-02T11:54:36.713Z,59.80
2018-02-02T11:57:02.941Z,60.00
2018-02-02T11:59:29.192Z,58.70
2018-02-02T12:01:56.532Z,58.70
2018-02-02T12:04:22.709Z,59.70
2018-02-02T12:06:49.002Z,59.10
2018-02-02T12:09:15.202Z,59.70
2018-02-02T12:11:41.478Z,59.50
2018-02-02T12:14:07.660Z,59.90
2018-02-02T12:16:33.905Z,60.20
2018-02-02T12:19:00.256Z,59.40
2018-02-02T12:21:26.505Z,60.30
2018-02-02T12:24:02.568Z,60.00
2018-02-02T12:26:35.841Z,59.40
2018-02-02T12:29:08.325Z,60.80
2018-02-02T12:31:40.605Z,62.10
2018-02-02T12:34:22.617Z,63.70
2018-02-02T12:36:49.080Z,65.10
2018-02-02T12:39:15.308Z,66.70
2018-02-02T12:41:41.616Z,68.00
2018-02-02T12:44:07.942Z,69.10
2018-02-02T12:46:34.176Z,69.10
2018-02-02T12:49:02.214Z,70.00
2018-02-02T12:51:28.414Z,69.60
2018-02-02T12:53:54.873Z,70.60
2018-02-02T12:56:22.901Z,70.10
2018-02-02T12:58:49.132Z,70.10
2018-02-02T13:01:15.417Z,70.30
2018-02-02T13:03:41.601Z,70.90
2018-02-02T13:06:07.794Z,71.50
2018-02-02T13:08:34.084Z,71.30
2018-02-02T13:11:00.320Z,70.70
2018-02-02T13:13:27.272Z,72.10
2018-02-02T13:15:54.177Z,72.20
2018-02-02T13:18:20.400Z,71.40
2018-02-02T13:20:46.611Z,72.80
2018-02-02T13:23:13.560Z,73.60
2018-02-02T13:25:39.846Z,72.80
2018-02-02T13:28:06.637Z,72.80
2018-02-02T13:30:32.889Z,72.90
2018-02-02T13:32:59.111Z,72.70
2018-02-02T13:35:25.453Z,73.10
2018-02-02T13:37:51.595Z,73.40
2018-02-02T13:40:18.616Z,74.00
2018-02-02T13:42:44.855Z,74.10
2018-02-02T13:45:11.110Z,74.20
2018-02-02T13:47:37.297Z,74.20
2018-02-02T13:50:04.289Z,74.10
2018-02-02T13:52:30.686Z,74.00
2018-02-02T13:54:56.895Z,74.70
2018-02-02T13:57:23.068Z,74.10
2018-02-02T13:59:49.334Z,74.30
2018-02-02T14:02:16.280Z,74.60
2018-02-02T14:04:42.476Z,74.60
2018-02-02T14:07:08.793Z,73.50
2018-02-02T14:09:34.985Z,74.80
2018-02-02T14:12:01.208Z,74.20
2018-02-02T14:14:27.460Z,74.50
2018-02-02T14:16:53.632Z,74.30
2018-02-02T14:19:19.865Z,73.30
2018-02-02T14:21:46.149Z,74.30
2018-02-02T14:24:12.438Z,74.30
2018-02-02T14:26:38.621Z,74.30
2018-02-02T14:29:04.913Z,73.80
2018-02-02T14:31:31.093Z,73.40
2018-02-02T14:33:57.311Z,73.40
2018-02-02T14:36:23.590Z,73.60
2018-02-02T14:38:49.793Z,73.80
2018-02-02T14:41:15.985Z,74.20
2018-02-02T14:43:42.330Z,73.90
2018-02-02T14:46:08.531Z,73.30
2018-02-02T14:48:35.519Z,75.10
2018-02-02T14:51:01.789Z,75.00
2018-02-02T14:53:27.980Z,74.60
2018-02-02T14:55:54.925Z,74.40
2018-02-02T14:58:25.547Z,74.40
2018-02-02T15:00:51.755Z,74.40
2018-02-02T15:03:18.044Z,73.40
2018-02-02T15:05:44.289Z,73.60
2018-02-02T15:08:11.280Z,74.10
2018-02-02T15:10:37.522Z,74.10
2018-02-02T15:13:03.788Z,74.00
2018-02-02T15:15:30.044Z,74.00
2018-02-02T15:17:56.245Z,73.40
2018-02-02T15:20:22.508Z,73.40
2018-02-02T15:22:53.744Z,73.40
2018-02-02T15:25:20.125Z,73.40
2018-02-02T15:27:46.318Z,73.40
2018-02-02T15:30:13.309Z,73.40
2018-02-02T15:32:39.700Z,73.40
2018-02-02T15:35:05.872Z,73.40
2018-02-02T15:37:32.152Z,73.90
2018-02-02T15:39:58.665Z,73.40
2018-02-02T15:42:24.843Z,73.40
2018-02-02T15:44:51.043Z,72.70
2018-02-02T15:47:18.197Z,72.70
2018-02-02T15:49:44.585Z,73.40
2018-02-02T15:52:10.860Z,73.20
2018-02-02T15:54:37.067Z,73.50
2018-02-02T15:57:03.474Z,73.50
2018-02-02T15:59:29.682Z,73.20
2018-02-02T16:01:56.741Z,73.60
2018-02-02T16:04:23.036Z,73.50
2018-02-02T16:06:49.280Z,73.10
2018-02-02T16:09:15.456Z,73.50
2018-02-02T16:11:41.817Z,73.40
2018-02-02T16:14:08.764Z,73.10
2018-02-02T16:16:34.957Z,73.20
2018-02-02T16:19:01.187Z,73.50
2018-02-02T16:21:27.400Z,73.60
2018-02-02T16:23:54.328Z,72.50
2018-02-02T16:26:20.522Z,72.50
2018-02-02T16:28:47.004Z,72.50
2018-02-02T16:31:13.227Z,72.60
2018-02-02T16:33:39.483Z,72.90
2018-02-02T16:36:06.725Z,72.70
2018-02-02T16:38:32.962Z,72.40
2018-02-02T16:40:59.299Z,72.70
2018-02-02T16:43:25.517Z,72.40
2018-02-02T16:45:52.580Z,72.80
2018-02-02T16:48:18.960Z,72.60
2018-02-02T16:50:45.155Z,72.20
2018-02-02T16:53:11.556Z,71.90
2018-02-02T16:55:37.815Z,72.00
2018-02-02T16:58:04.040Z,70.90
2018-02-02T17:00:30.259Z,71.00
2018-02-02T17:02:56.464Z,70.40
2018-02-02T17:05:22.673Z,70.30
2018-02-02T17:07:52.422Z,70.20
2018-02-02T17:10:18.664Z,70.70
2018-02-02T17:12:45.017Z,71.00
2018-02-02T17:15:11.973Z,69.80
2018-02-02T17:17:38.949Z,70.00
2018-02-02T17:20:06.045Z,70.60
2018-02-02T17:22:32.380Z,70.70
2018-02-02T17:24:58.625Z,70.40
2018-02-02T17:27:24.828Z,70.30
2018-02-02T17:29:51.783Z,70.50
2018-02-02T17:32:18.704Z,70.00
2018-02-02T17:34:44.927Z,70.00
2018-02-02T17:37:11.382Z,69.90
2018-02-02T17:39:37.605Z,69.30
2018-02-02T17:42:03.800Z,69.80
2018-02-02T17:44:30.204Z,70.20
2018-02-02T17:46:56.472Z,70.10
2018-02-02T17:49:22.685Z,70.80
2018-02-02T17:51:48.908Z,70.40
2018-02-02T17:54:15.232Z,70.40
2018-02-02T17:56:41.612Z,70.60
2018-02-02T17:59:07.869Z,70.20
2018-02-02T18:01:49.913Z,70.30
2018-02-02T18:04:16.113Z,70.60
2018-02-02T18:06:42.318Z,70.40
2018-02-02T18:09:08.541Z,70.00
2018-02-02T18:11:34.733Z,70.40
2018-02-02T18:14:00.986Z,70.80
2018-02-02T18:16:27.299Z,70.90
2018-02-02T18:18:53.850Z,70.80
2018-02-02T18:21:20.050Z,70.80
2018-02-02T18:23:46.272Z,70.40
2018-02-02T18:26:12.609Z,70.80
2018-02-02T18:28:38.879Z,70.90
2018-02-02T18:31:05.090Z,70.40
2018-02-02T18:33:31.414Z,70.60
2018-02-02T18:35:57.680Z,70.20
2018-02-02T18:38:23.880Z,70.10
2018-02-02T18:40:50.735Z,69.70
2018-02-02T18:43:16.981Z,70.30
2018-02-02T18:45:43.212Z,69.70
2018-02-02T18:48:09.480Z,71.00
2018-02-02T18:50:35.814Z,70.30
2018-02-02T18:53:02.121Z,70.10
2018-02-02T18:55:28.470Z,70.30
2018-02-02T18:57:54.717Z,69.90
2018-02-02T19:00:21.146Z,69.40
2018-02-02T19:02:51.150Z,70.30
2018-02-02T19:05:17.476Z,69.40
2018-02-02T19:07:43.800Z,70.20
2018-02-02T19:10:10.133Z,69.90
2018-02-02T19:12:39.840Z,70.60
2018-02-02T19:15:06.064Z,70.00
2018-02-02T19:17:32.311Z,70.30
2018-02-02T19:19:59.472Z,70.60
2018-02-02T19:22:25.734Z,70.60
2018-02-02T19:24:51.965Z,70.00
2018-02-02T19:27:18.922Z,70.40
2018-02-02T19:29:46.008Z,71.20
2018-02-02T19:32:12.211Z,71.20
2018-02-02T19:34:39.220Z,70.50
2018-02-02T19:37:05.650Z,70.50
2018-02-02T19:39:32.937Z,71.30
2018-02-02T19:41:59.157Z,71.00
2018-02-02T19:44:25.481Z,71.00
2018-02-02T19:46:51.773Z,70.70
2018-02-02T19:49:18.034Z,70.50
2018-02-02T19:51:44.622Z,70.10
2018-02-02T19:54:11.127Z,70.50
2018-02-02T19:56:37.392Z,70.30
2018-02-02T19:59:04.712Z,69.80
2018-02-02T20:01:30.981Z,69.60
2018-02-02T20:03:57.261Z,70.10
2018-02-02T20:06:24.464Z,69.90
2018-02-02T20:08:50.734Z,69.60
2018-02-02T20:11:16.956Z,69.80
2018-02-02T20:13:43.185Z,69.20
2018-02-02T20:16:09.416Z,69.70
2018-02-02T20:18:35.658Z,70.60
2018-02-02T20:21:01.921Z,70.70
2018-02-02T20:23:28.149Z,70.20
2018-02-02T20:25:54.642Z,70.10
2018-02-02T20:28:21.636Z,70.70
2018-02-02T20:30:47.878Z,70.70
2018-02-02T20:33:14.052Z,70.90
2018-02-02T20:35:40.412Z,70.60
2018-02-02T20:38:06.616Z,70.40
2018-02-02T20:40:32.842Z,70.30
2018-02-02T20:42:59.440Z,69.90
2018-02-02T20:45:26.028Z,70.20
2018-02-02T20:47:53.138Z,70.20
2018-02-02T20:50:19.460Z,70.20
2018-02-02T20:52:46.106Z,70.40
2018-02-02T20:55:12.686Z,70.30
2018-02-02T20:57:38.933Z,70.60
2018-02-02T21:00:05.401Z,70.10
2018-02-02T21:02:42.722Z,70.60
2018-02-02T21:05:08.979Z,70.60
2018-02-02T21:07:35.214Z,70.70
2018-02-02T21:10:01.557Z,70.30
2018-02-02T21:15:00.845Z,70.70
2018-02-02T21:17:27.164Z,70.10
2018-02-02T21:19:53.710Z,69.90
2018-02-02T21:22:21.028Z,70.10
2018-02-02T21:24:47.322Z,70.00
2018-02-02T21:27:13.617Z,71.00
2018-02-02T21:29:40.681Z,70.00
2018-02-02T21:32:06.920Z,70.00
2018-02-02T21:34:33.230Z,69.70
2018-02-02T21:36:59.529Z,70.00
2018-02-02T21:39:26.953Z,70.30
2018-02-02T21:41:53.432Z,70.50
2018-02-02T21:44:20.232Z,70.90
2018-02-02T21:46:46.684Z,70.90
2018-02-02T21:49:12.925Z,69.70
2018-02-02T21:51:39.514Z,69.70
2018-02-02T21:54:06.166Z,70.20
2018-02-02T21:56:32.622Z,70.10
2018-02-02T21:58:59.913Z,70.10
2018-02-02T22:04:29.912Z,69.60
2018-02-02T22:06:56.790Z,69.90
2018-02-02T22:09:23.878Z,69.40
2018-02-02T22:11:50.140Z,69.40
2018-02-02T22:14:16.521Z,68.90
2018-02-02T22:16:46.231Z,69.30
2018-02-02T22:19:13.016Z,69.20
2018-02-02T22:21:39.329Z,69.50
2018-02-02T22:24:05.621Z,69.90
2018-02-02T22:26:31.967Z,69.80
2018-02-02T22:29:04.324Z,69.90
2018-02-02T22:31:30.586Z,69.50
2018-02-02T22:36:48.390Z,69.10
2018-02-02T22:39:14.736Z,69.80
2018-02-02T22:41:40.987Z,69.20
2018-02-02T22:44:14.436Z,69.70
2018-02-02T22:46:42.653Z,69.20
2018-02-02T22:49:08.910Z,69.80
2018-02-02T22:51:35.195Z,70.30
2018-02-02T22:54:01.468Z,69.70
2018-02-02T22:56:28.037Z,69.40
2018-02-02T22:59:00.533Z,69.80
2018-02-02T23:01:26.977Z,68.40
2018-02-02T23:03:53.253Z,68.80
2018-02-02T23:06:19.623Z,69.50
2018-02-02T23:08:45.920Z,69.10
2018-02-02T23:11:12.935Z,69.80
2018-02-02T23:13:39.290Z,69.00
2018-02-02T23:16:05.674Z,69.30
2018-02-02T23:18:32.076Z,69.60
2018-02-02T23:20:58.412Z,69.20
2018-02-02T23:23:24.758Z,68.90
2018-02-02T23:25:51.018Z,69.20
2018-02-02T23:28:17.626Z,70.10
2018-02-02T23:30:44.937Z,70.40
2018-02-02T23:33:11.200Z,69.90
2018-02-02T23:35:39.405Z,70.40
2018-02-02T23:38:05.844Z,69.60
2018-02-02T23:40:32.119Z,69.20
2018-02-02T23:42:58.333Z,69.30
2018-02-02T23:45:25.365Z,69.60
2018-02-02T23:47:51.620Z,70.20
2018-02-02T23:50:17.841Z,69.00
2018-02-02T23:52:44.175Z,69.20
2018-02-02T23:55:11.267Z,69.30
2018-02-02T23:57:37.533Z,69.50
